Time;durP1;ratioP1;P1;durP2;ratioP2;P2;SDS_P1;SDS_P2;PMS_P1;PMS_P2;Temp;Humidity;BMP_temperature;BMP_pressure;BME280_temperature;BME280_humidity;BME280_pressure;Samples;Min_cycle;Max_cycle;Signal;HPM_P1;HPM_P2
2022/12/05 00:00:44;;;;;;;76.85;43.83;;;;;;;;;;5093060;28;20059;-70
2022/12/05 00:03:52;;;;;;;69.32;39.95;;;11.00;99.90;;;;;;5093400;28;20521;-70
2022/12/05 00:06:56;;;;;;;62.60;39.42;;;;;;;;;;5092229;28;20047;-70
2022/12/05 00:10:00;;;;;;;57.88;34.53;;;10.80;99.90;;;;;;5092986;28;20043;-70
2022/12/05 00:13:04;;;;;;;61.58;36.13;;;10.70;99.90;;;;;;5093155;28;20054;-70
2022/12/05 00:16:11;;;;;;;56.67;35.10;;;10.80;99.90;;;;;;5093111;28;20058;-70
2022/12/05 00:19:15;;;;;;;64.63;36.05;;;10.80;99.90;;;;;;5092585;28;20055;-70
2022/12/05 00:22:19;;;;;;;64.93;37.65;;;10.70;99.90;;;;;;5092848;28;20042;-70
2022/12/05 00:25:23;;;;;;;64.65;39.05;;;;;;;;;;5092113;28;20058;-70
2022/12/05 00:28:27;;;;;;;63.47;37.25;;;;;;;;;;5093253;28;20202;-70
2022/12/05 00:31:31;;;;;;;56.20;36.63;;;10.50;99.90;;;;;;5092774;28;20043;-70
2022/12/05 00:34:36;;;;;;;53.40;32.50;;;;;;;;;;5092770;28;20047;-70
2022/12/05 00:37:40;;;;;;;51.60;29.65;;;10.60;99.90;;;;;;5092672;28;20047;-70
2022/12/05 00:40:44;;;;;;;51.75;30.10;;;;;;;;;;5092636;28;20066;-70
2022/12/05 00:43:49;;;;;;;54.30;31.30;;;10.60;99.90;;;;;;5092379;28;20039;-70
2022/12/05 00:46:53;;;;;;;57.97;29.92;;;10.10;99.90;;;;;;5092575;28;20047;-70
2022/12/05 00:49:57;;;;;;;55.17;29.90;;;;;;;;;;5092280;28;20491;-70
2022/12/05 00:53:02;;;;;;;56.75;31.98;;;;;;;;;;5092175;28;20054;-70
2022/12/05 00:56:13;;;;;;;57.80;33.70;;;10.40;99.90;;;;;;5092493;28;20157;-70
2022/12/05 00:59:18;;;;;;;53.50;31.00;;;10.30;99.90;;;;;;5092020;28;20518;-69
2022/12/05 01:02:23;;;;;;;57.72;30.83;;;;;;;;;;5091778;28;20046;-69
2022/12/05 01:05:27;;;;;;;47.17;30.42;;;;;;;;;;5091886;28;20043;-69
2022/12/05 01:08:32;;;;;;;52.05;30.65;;;10.50;99.90;;;;;;5091809;28;20039;-69
2022/12/05 01:11:37;;;;;;;61.97;31.33;;;;;;;;;;5091940;28;20401;-70
2022/12/05 01:14:41;;;;;;;48.70;31.65;;;;;;;;;;5092045;28;20054;-71
2022/12/05 01:17:45;;;;;;;56.50;30.90;;;10.50;99.90;;;;;;5091972;28;20051;-69
2022/12/05 01:20:49;;;;;;;52.67;30.85;;;10.50;99.90;;;;;;5091619;28;20047;-69
2022/12/05 01:23:54;;;;;;;46.00;27.08;;;;;;;;;;5091890;28;20525;-69
2022/12/05 01:26:58;;;;;;;40.20;22.00;;;;;;;;;;5091835;28;20054;-69
2022/12/05 01:30:03;;;;;;;46.20;19.98;;;10.80;99.90;;;;;;5091791;28;20043;-69
2022/12/05 01:33:08;;;;;;;39.78;18.10;;;10.90;99.90;;;;;;5091899;28;20039;-70
2022/12/05 01:36:13;;;;;;;29.77;18.00;;;;;;;;;;5091807;28;20039;-69
2022/12/05 01:39:17;;;;;;;45.47;17.88;;;;;;;;;;5091431;28;20051;-70
2022/12/05 01:42:21;;;;;;;35.80;17.15;;;11.00;99.90;;;;;;5091331;28;20498;-70
2022/12/05 01:45:36;;;;;;;34.80;16.58;;;10.90;99.90;;;;;;5091268;28;20043;-70
2022/12/05 01:48:43;;;;;;;41.65;18.90;;;;;;;;;;5091515;28;20043;-70
2022/12/05 01:51:51;;;;;;;32.28;17.08;;;12.40;99.90;;;;;;5090976;28;20071;-70
2022/12/05 01:55:00;;;;;;;40.55;21.55;;;11.00;99.90;;;;;;5090750;28;20036;-71
2022/12/05 01:58:06;;;;;;;36.92;19.02;;;11.60;99.90;;;;;;5090924;28;20394;-70
2022/12/05 02:01:13;;;;;;;36.22;18.27;;;10.50;99.90;;;;;;5090617;28;20035;-70
2022/12/05 02:04:17;;;;;;;32.83;19.10;;;10.60;99.90;;;;;;5091413;28;20051;-70
2022/12/05 02:07:22;;;;;;;30.95;17.10;;;10.30;99.90;;;;;;5091114;28;20035;-69
2022/12/05 02:10:30;;;;;;;32.83;19.17;;;10.20;99.90;;;;;;5090845;28;20408;-70
2022/12/05 02:13:48;;;;;;;42.80;20.25;;;10.30;99.90;;;;;;5090874;28;20063;-69
2022/12/05 02:17:11;;;;;;;33.15;19.83;;;10.20;99.90;;;;;;5091032;28;20043;-69
2022/12/05 02:20:34;;;;;;;44.90;20.85;;;10.30;99.90;;;;;;5090725;28;20070;-70
2022/12/05 02:23:47;;;;;;;39.40;21.23;;;10.10;99.90;;;;;;5090917;28;20047;-70
2022/12/05 02:26:51;;;;;;;34.50;20.52;;;;;;;;;;5091112;28;20043;-70
2022/12/05 02:30:11;;;;;;;32.70;19.83;;;10.10;99.90;;;;;;5090827;28;20506;-70
2022/12/05 02:33:45;;;;;;;34.17;18.27;;;10.10;99.90;;;;;;5089708;28;20050;-70
2022/12/05 02:36:59;;;;;;;32.03;18.02;;;9.30;99.90;;;;;;5080901;28;20035;-70
2022/12/05 02:40:14;;;;;;;38.25;19.45;;;10.00;99.90;;;;;;5090778;28;20059;-70
2022/12/05 02:43:25;;;;;;;36.47;18.17;;;10.10;99.90;;;;;;5090889;28;20047;-70
2022/12/05 02:46:32;;;;;;;34.60;18.40;;;10.30;99.90;;;;;;5090696;28;20043;-70
2022/12/05 02:49:36;;;;;;;35.25;17.38;;;9.80;99.90;;;;;;5078748;28;20031;-69
2022/12/05 02:52:42;;;;;;;34.65;17.88;;;10.30;99.90;;;;;;5090560;28;20054;-69
2022/12/05 02:55:46;;;;;;;38.10;17.27;;;;;;;;;;5090813;28;20039;-70
2022/12/05 02:58:53;;;;;;;31.77;16.50;;;10.20;99.90;;;;;;5091145;28;20047;-70
2022/12/05 03:01:58;;;;;;;31.65;17.95;;;;;;;;;;5091054;28;20036;-70
2022/12/05 03:05:26;;;;;;;28.17;14.88;;;10.40;99.90;;;;;;5091180;28;20051;-69
2022/12/05 03:08:35;;;;;;;30.27;14.77;;;;;;;;;;5090411;28;20047;-69
2022/12/05 03:11:51;;;;;;;28.90;15.30;;;9.90;99.90;;;;;;5090905;28;20035;-69
2022/12/05 03:15:01;;;;;;;34.08;14.25;;;10.40;99.90;;;;;;5094054;28;20047;-69
2022/12/05 03:18:23;;;;;;;21.35;11.40;;;10.30;99.90;;;;;;5093741;28;20043;-69
2022/12/05 03:21:34;;;;;;;26.45;11.60;;;11.80;99.90;;;;;;5093928;28;20043;-69
2022/12/05 03:24:40;;;;;;;24.98;12.57;;;10.40;99.90;;;;;;5093963;28;20043;-70
2022/12/05 03:27:51;;;;;;;25.20;12.43;;;;;;;;;;5093770;28;20047;-69
2022/12/05 03:31:00;;;;;;;28.15;13.43;;;10.50;99.90;;;;;;5093900;28;20047;-68
2022/12/05 03:34:11;;;;;;;26.20;14.55;;;9.70;99.90;;;;;;5093790;28;20114;-69
2022/12/05 03:37:41;;;;;;;27.03;14.10;;;9.90;99.90;;;;;;5093987;28;20051;-70
2022/12/05 03:40:55;;;;;;;27.30;12.10;;;9.80;99.90;;;;;;5094916;28;20066;-70
2022/12/05 03:44:08;;;;;;;23.20;11.80;;;9.80;99.90;;;;;;5093682;28;20039;-70
2022/12/05 03:47:21;;;;;;;22.30;10.45;;;9.90;99.90;;;;;;5093845;28;20047;-70
2022/12/05 03:50:27;;;;;;;28.70;11.00;;;;;;;;;;5093161;28;20039;-69
2022/12/05 03:53:39;;;;;;;22.48;10.80;;;10.00;99.90;;;;;;5093618;28;20045;-69
2022/12/05 03:56:45;;;;;;;;;;;10.00;99.90;;;;;;5094745;28;20050;-70
2022/12/05 03:59:57;;;;;;;26.70;10.13;;;10.10;99.90;;;;;;5093290;28;19939;-70
2022/12/05 04:03:23;;;;;;;26.38;9.45;;;10.10;99.90;;;;;;5093513;28;20047;-70
2022/12/05 04:06:38;;;;;;;17.73;8.75;;;10.20;99.90;;;;;;5093090;28;20039;-70
2022/12/05 04:09:48;;;;;;;25.77;9.55;;;10.10;99.90;;;;;;5093279;28;20047;-70
2022/12/05 04:12:55;;;;;;;18.42;9.85;;;10.00;99.90;;;;;;5092932;28;20400;-70
2022/12/05 04:23:34;;;;;;;21.42;9.35;;;10.00;99.90;;;;;;5092791;28;20507;-70
2022/12/05 04:26:45;;;;;;;23.83;9.30;;;9.80;99.90;;;;;;5093010;28;20039;-70
2022/12/05 04:30:18;;;;;;;21.73;9.07;;;9.90;99.90;;;;;;5092576;28;20047;-70
2022/12/05 04:33:22;;;;;;;29.00;8.85;;;;;;;;;;5092672;28;20039;-70
2022/12/05 04:36:37;;;;;;;25.70;9.95;;;10.20;99.90;;;;;;5092573;28;20047;-69
2022/12/05 04:39:54;;;;;;;19.95;9.82;;;10.00;99.90;;;;;;5092497;28;20051;-69
2022/12/05 04:42:59;;;;;;;27.30;9.80;;;9.90;99.90;;;;;;5092574;28;20399;-69
2022/12/05 04:46:06;;;;;;;24.75;9.43;;;9.90;99.90;;;;;;5092681;28;20067;-69
2022/12/05 04:49:12;;;;;;;20.33;9.25;;;;;;;;;;5092303;28;20047;-70
2022/12/05 04:52:16;;;;;;;20.35;9.90;;;;;;;;;;5091906;28;20055;-69
2022/12/05 04:55:27;;;;;;;21.85;9.65;;;9.60;99.90;;;;;;5092369;28;20041;-70
2022/12/05 04:58:31;;;;;;;24.80;9.75;;;10.10;99.90;;;;;;5092065;28;20059;-70
2022/12/05 05:01:59;;;;;;;21.67;8.63;;;8.80;99.90;;;;;;5092284;28;20047;-70
2022/12/05 05:05:08;;;;;;;20.17;9.25;;;10.00;99.90;;;;;;5092012;28;20034;-70
2022/12/05 05:08:21;;;;;;;27.98;9.30;;;10.00;99.90;;;;;;5092136;28;20050;-69
2022/12/05 05:11:28;;;;;;;23.70;9.90;;;9.80;99.90;;;;;;5091847;28;20047;-69
2022/12/05 05:14:33;;;;;;;23.23;11.60;;;;;;;;;;5091893;28;20042;-69
2022/12/05 05:17:37;;;;;;;17.92;9.52;;;8.90;99.90;;;;;;5092054;28;20395;-70
2022/12/05 05:20:41;;;;;;;16.63;8.32;;;9.80;99.90;;;;;;5091917;28;20052;-69
2022/12/05 05:23:45;;;;;;;15.75;9.50;;;9.70;99.90;;;;;;5091970;28;20047;-70
2022/12/05 05:26:49;;;;;;;22.75;9.80;;;9.60;99.90;;;;;;5091621;28;20059;-70
2022/12/05 05:29:53;;;;;;;24.67;8.82;;;9.40;99.90;;;;;;5091777;28;20043;-69
2022/12/05 05:32:59;;;;;;;19.92;8.90;;;9.50;99.90;;;;;;5091776;28;20039;-70
2022/12/05 05:36:13;;;;;;;19.17;8.82;;;9.40;99.90;;;;;;5090882;28;20510;-70
2022/12/05 05:39:17;;;;;;;24.95;9.90;;;;;;;;;;5091594;28;20518;-70
2022/12/05 05:42:22;;;;;;;17.33;8.90;;;;;;;;;;5091711;28;20032;-69
2022/12/05 05:45:26;;;;;;;20.98;8.40;;;9.50;99.90;;;;;;5091436;28;20529;-69
2022/12/05 05:48:30;;;;;;;19.58;9.13;;;9.90;99.90;;;;;;5091588;28;20048;-69
2022/12/05 05:51:34;;;;;;;46.83;22.50;;;9.40;99.90;;;;;;5091131;28;20067;-69
2022/12/05 05:54:40;;;;;;;43.88;25.23;;;9.50;99.90;;;;;;5091458;28;20059;-70
2022/12/05 05:57:45;;;;;;;26.88;12.18;;;;;;;;;;5091232;28;20470;-69
2022/12/05 06:00:49;;;;;;;26.98;12.15;;;;;;;;;;5091336;28;20071;-70
2022/12/05 06:03:53;;;;;;;27.00;10.05;;;;;;;;;;5091338;28;20072;-69
2022/12/05 06:06:57;;;;;;;25.50;10.63;;;;;;;;;;5091048;28;20043;-69
2022/12/05 06:10:02;;;;;;;21.85;9.98;;;;;;;;;;5090758;28;20047;-69
2022/12/05 06:13:06;;;;;;;37.45;13.95;;;;;;;;;;5090617;28;20032;-69
2022/12/05 06:16:12;;;;;;;34.72;15.85;;;9.50;99.90;;;;;;5088936;28;20328;-69
2022/12/05 06:19:16;;;;;;;39.47;15.63;;;;;;;;;;5089077;28;20052;-69
2022/12/05 06:22:21;;;;;;;27.30;11.93;;;;;;;;;;5089490;28;20039;-69
2022/12/05 06:25:25;;;;;;;30.67;15.38;;;;;;;;;;5090250;28;20047;-69
2022/12/05 06:28:30;;;;;;;33.13;16.05;;;;;;;;;;5090452;28;20043;-69
2022/12/05 06:31:34;;;;;;;43.30;14.48;;;9.90;99.90;;;;;;5090990;28;20499;-69
2022/12/05 06:34:38;;;;;;;35.20;12.60;;;9.90;99.90;;;;;;5090792;28;20496;-69
2022/12/05 06:37:43;;;;;;;25.63;10.32;;;9.90;99.90;;;;;;5090185;28;20047;-69
2022/12/05 06:40:47;;;;;;;27.13;10.75;;;;;;;;;;5090845;28;20051;-69
2022/12/05 06:43:53;;;;;;;29.75;12.57;;;9.20;99.90;;;;;;5090642;28;20038;-69
2022/12/05 06:46:57;;;;;;;24.00;11.60;;;9.90;99.90;;;;;;5093075;28;20069;-69
2022/12/05 06:50:01;;;;;;;24.92;10.38;;;;;;;;;;5094344;28;20070;-69
2022/12/05 06:53:05;;;;;;;29.08;14.75;;;;;;;;;;5094789;28;20051;-69
2022/12/05 06:56:16;;;;;;;33.35;19.88;;;10.00;99.90;;;;;;5094605;28;20043;-69
2022/12/05 06:59:20;;;;;;;32.30;14.38;;;10.10;99.90;;;;;;5094455;28;20105;-69
2022/12/05 07:02:24;;;;;;;32.40;12.10;;;;;;;;;;5094374;28;20043;-69
2022/12/05 07:05:28;;;;;;;30.35;10.30;;;10.20;99.90;;;;;;5093733;28;20047;-68
2022/12/05 07:08:33;;;;;;;29.35;10.98;;;10.20;99.90;;;;;;5094359;28;20047;-68
2022/12/05 07:11:38;;;;;;;29.25;12.50;;;10.90;99.90;;;;;;5094040;28;20051;-68
2022/12/05 07:14:43;;;;;;;29.35;11.90;;;10.20;99.90;;;;;;5094355;28;20047;-69
2022/12/05 07:17:47;;;;;;;29.58;10.90;;;;;;;;;;5093981;28;20071;-69
2022/12/05 07:21:03;;;;;;;29.50;10.52;;;10.70;99.90;;;;;;5093676;28;20502;-70
2022/12/05 07:24:08;;;;;;;33.33;10.43;;;;;;;;;;5093927;28;20043;-70
2022/12/05 07:27:13;;;;;;;26.52;10.68;;;10.80;99.90;;;;;;5094062;28;20043;-70
2022/12/05 07:30:17;;;;;;;24.20;10.88;;;;;;;;;;5094149;28;20398;-70
2022/12/05 07:33:21;;;;;;;24.95;10.52;;;;;;;;;;5093919;28;20426;-70
2022/12/05 07:36:26;;;;;;;29.23;10.93;;;;;;;;;;5093461;28;20063;-70
2022/12/05 07:39:30;;;;;;;28.45;9.90;;;;;;;;;;5093379;28;20058;-71
2022/12/05 07:42:35;;;;;;;31.80;12.45;;;;;;;;;;5093230;28;20417;-71
2022/12/05 07:45:39;;;;;;;32.67;11.13;;;;;;;;;;5093494;28;20059;-71
2022/12/05 07:48:43;;;;;;;28.00;11.30;;;;;;;;;;5093422;28;20051;-70
2022/12/05 07:51:48;;;;;;;32.85;13.80;;;;;;;;;;5092286;28;20063;-70
2022/12/05 07:54:52;;;;;;;28.15;13.75;;;;;;;;;;5093710;28;20051;-70
2022/12/05 07:57:56;;;;;;;29.83;14.07;;;10.40;99.90;;;;;;5092503;28;20051;-70
2022/12/05 08:01:12;;;;;;;41.67;15.68;;;11.90;99.90;;;;;;5093084;28;20051;-70
2022/12/05 08:04:16;;;;;;;34.53;14.65;;;;;;;;;;5093249;28;20059;-69
2022/12/05 08:07:20;;;;;;;41.78;16.58;;;12.20;99.90;;;;;;5092959;28;20498;-70
2022/12/05 08:10:24;;;;;;;40.30;16.30;;;12.60;99.90;;;;;;5092989;28;20035;-70
2022/12/05 08:13:28;;;;;;;33.45;15.90;;;12.80;99.90;;;;;;5092879;28;20525;-70
2022/12/05 08:16:33;;;;;;;84.32;18.70;;;13.30;99.90;;;;;;5092734;28;20051;-70
2022/12/05 08:19:37;;;;;;;31.90;14.02;;;13.10;99.90;;;;;;5092462;28;20504;-71
2022/12/05 08:22:41;;;;;;;28.33;12.45;;;13.40;99.90;;;;;;5092651;28;20392;-69
2022/12/05 08:25:45;;;;;;;22.02;10.52;;;13.30;99.90;;;;;;5092607;28;20047;-69
2022/12/05 08:29:13;;;;;;;24.67;9.63;;;13.60;99.90;;;;;;5092813;28;20035;-69
2022/12/05 08:32:16;;;;;;;18.90;8.23;;;13.90;99.30;;;;;;5092399;28;20031;-69
2022/12/05 08:35:21;;;;;;;28.60;8.98;;;13.90;99.30;;;;;;5092608;28;20043;-68
2022/12/05 08:38:25;;;;;;;28.58;9.70;;;14.00;98.60;;;;;;5092280;28;20399;-70
2022/12/05 08:41:29;;;;;;;19.75;8.27;;;14.10;98.90;;;;;;5091464;28;20054;-68
2022/12/05 08:44:33;;;;;;;15.80;8.40;;;14.20;98.80;;;;;;5092117;28;20039;-69
2022/12/05 08:47:37;;;;;;;19.50;8.88;;;14.40;98.90;;;;;;5092293;28;20047;-69
2022/12/05 08:50:41;;;;;;;21.13;8.80;;;14.50;98.80;;;;;;5091945;28;20039;-68
2022/12/05 08:53:46;;;;;;;15.82;8.60;;;14.60;98.70;;;;;;5092775;28;20047;-68
2022/12/05 08:56:51;;;;;;;19.45;8.73;;;14.80;98.40;;;;;;5092185;28;20051;-69
2022/12/05 08:59:55;;;;;;;18.20;8.70;;;14.90;98.20;;;;;;5091896;28;20461;-69
2022/12/05 09:02:59;;;;;;;21.85;9.80;;;15.10;98.10;;;;;;5092136;28;20039;-69
2022/12/05 09:06:09;;;;;;;16.63;8.52;;;15.20;98.00;;;;;;5092228;28;20051;-68
2022/12/05 09:09:12;;;;;;;20.00;7.93;;;15.30;97.80;;;;;;5091290;28;20043;-69
2022/12/05 09:12:19;;;;;;;20.10;9.18;;;15.40;97.60;;;;;;5092150;28;20047;-69
2022/12/05 09:15:23;;;;;;;19.23;8.98;;;15.50;97.40;;;;;;5091940;28;20046;-69
2022/12/05 09:18:27;;;;;;;16.63;8.20;;;15.70;97.20;;;;;;5091900;28;20122;-69
2022/12/05 09:21:31;;;;;;;21.98;8.80;;;15.70;97.00;;;;;;5091081;28;20051;-69
2022/12/05 09:24:35;;;;;;;24.88;8.60;;;15.90;96.20;;;;;;5091594;28;20387;-69
2022/12/05 09:27:39;;;;;;;28.77;9.70;;;16.00;96.30;;;;;;5091705;28;20050;-67
2022/12/05 09:30:43;;;;;;;28.98;9.73;;;16.10;96.20;;;;;;5091382;28;20063;-66
2022/12/05 09:33:49;;;;;;;21.23;10.48;;;16.30;95.90;;;;;;5091596;28;20066;-65
2022/12/05 09:36:53;;;;;;;26.65;12.52;;;16.40;95.70;;;;;;5091494;28;20059;-68
2022/12/05 09:39:57;;;;;;;24.40;12.00;;;16.50;95.80;;;;;;5090985;28;20074;-66
2022/12/05 09:43:06;;;;;;;28.02;11.15;;;16.60;96.10;;;;;;5091530;28;20403;-68
2022/12/05 09:46:48;;;;;;;27.27;10.45;;;16.60;96.10;;;;;;5089239;28;20043;-66
2022/12/05 09:50:15;;;;;;;18.98;9.65;;;16.60;96.30;;;;;;5089106;28;20043;-67
2022/12/05 09:53:33;;;;;;;27.05;9.48;;;16.60;96.20;;;;;;5089365;28;20059;-67
2022/12/05 09:56:38;;;;;;;24.65;10.05;;;16.70;96.00;;;;;;5089235;28;20051;-67
2022/12/05 09:59:42;;;;;;;25.67;10.50;;;16.70;95.80;;;;;;5089706;28;20055;-67
2022/12/05 10:02:51;;;;;;;22.67;10.77;;;16.80;95.90;;;;;;5091287;28;20047;-68
2022/12/05 10:06:09;;;;;;;22.38;9.95;;;17.00;96.10;;;;;;5091410;28;20047;-67
2022/12/05 10:09:13;;;;;;;34.88;9.73;;;17.10;96.00;;;;;;5090128;28;20213;-68
2022/12/05 10:12:37;;;;;;;19.92;9.10;;;17.20;95.60;;;;;;5090959;28;20039;-68
2022/12/05 10:15:43;;;;;;;24.05;9.05;;;17.40;95.30;;;;;;5090978;28;20039;-67
2022/12/05 10:19:17;;;;;;;13.82;7.18;;;17.40;95.00;;;;;;5090606;28;20598;-68
2022/12/05 10:22:40;;;;;;;17.92;7.00;;;17.50;94.80;;;;;;5094492;28;20511;-67
2022/12/05 10:25:44;;;;;;;12.80;5.90;;;17.50;94.30;;;;;;5094979;28;20059;-67
2022/12/05 10:29:01;;;;;;;23.73;6.93;;;17.60;94.10;;;;;;5094945;28;20058;-67
2022/12/05 10:32:14;;;;;;;14.82;5.05;;;17.80;93.70;;;;;;5094853;28;20110;-68
2022/12/05 10:35:24;;;;;;;13.90;4.97;;;17.80;93.50;;;;;;5095231;28;20067;-68
2022/12/05 10:38:30;;;;;;;25.17;8.27;;;17.90;93.20;;;;;;5094957;28;20051;-67
2022/12/05 10:41:34;;;;;;;15.90;7.28;;;18.00;93.30;;;;;;5094502;28;20047;-68
2022/12/05 10:44:38;;;;;;;20.23;6.85;;;18.00;93.70;;;;;;5094332;28;20054;-69
2022/12/05 10:47:42;;;;;;;15.02;5.40;;;18.00;94.00;;;;;;5094231;28;20394;-68
2022/12/05 10:50:55;;;;;;;18.52;4.72;;;18.00;94.30;;;;;;5094312;28;20047;-68
2022/12/05 10:53:59;;;;;;;18.58;3.97;;;18.00;94.30;;;;;;5094631;28;20072;-69
2022/12/05 10:57:23;;;;;;;14.05;4.47;;;18.00;94.00;;;;;;5094611;28;20051;-67
2022/12/05 11:00:29;;;;;;;19.48;4.15;;;18.00;94.10;;;;;;5093969;28;20051;-67
2022/12/05 11:03:37;;;;;;;14.48;3.88;;;18.10;94.40;;;;;;5094101;28;20051;-70
2022/12/05 11:07:06;;;;;;;10.52;3.80;;;18.10;94.80;;;;;;5092052;28;20063;-68
2022/12/05 11:10:42;;;;;;;17.25;4.15;;;18.10;94.80;;;;;;5091843;28;20043;-68
2022/12/05 11:13:57;;;;;;;14.25;3.90;;;18.20;94.40;;;;;;5092224;28;20051;-67
2022/12/05 11:17:04;;;;;;;13.10;4.10;;;18.10;94.20;;;;;;5092609;28;20047;-67
2022/12/05 11:20:17;;;;;;;10.38;3.70;;;18.20;94.10;;;;;;5092324;28;20055;-67
2022/12/05 11:23:27;;;;;;;15.10;4.50;;;18.20;94.30;;;;;;5093771;28;20055;-67
2022/12/05 11:26:37;;;;;;;19.02;5.57;;;18.20;94.30;;;;;;5093828;28;20499;-67
2022/12/05 11:29:44;;;;;;;19.08;6.13;;;18.20;94.30;;;;;;5093582;28;20047;-67
2022/12/05 11:32:49;;;;;;;16.15;5.32;;;18.20;94.60;;;;;;5092723;28;20043;-67
2022/12/05 11:35:57;;;;;;;15.40;5.57;;;18.20;94.70;;;;;;5093416;28;20043;-67
2022/12/05 11:39:01;;;;;;;14.82;5.43;;;18.10;94.80;;;;;;5093792;28;20050;-67
2022/12/05 11:42:17;;;;;;;22.40;8.00;;;18.10;94.90;;;;;;5093687;28;20047;-66
2022/12/05 11:45:52;;;;;;;28.38;8.07;;;18.10;94.80;;;;;;5093923;28;20506;-67
2022/12/05 11:49:38;;;;;;;19.33;7.00;;;18.10;94.90;;;;;;5092936;28;20510;-67
2022/12/05 11:53:19;;;;;;;14.75;4.97;;;18.10;95.10;;;;;;5030493;28;20052;-67
2022/12/05 11:56:26;;;;;;;17.05;5.63;;;18.00;95.10;;;;;;5044946;28;20038;-67
2022/12/05 12:00:01;;;;;;;15.95;5.07;;;18.00;95.10;;;;;;5093076;28;20399;-67
2022/12/05 12:03:42;;;;;;;18.80;4.57;;;18.00;95.20;;;;;;5092324;28;20051;-67
2022/12/05 12:07:04;;;;;;;17.70;5.03;;;18.00;95.20;;;;;;5093423;28;20054;-67
2022/12/05 12:10:17;;;;;;;12.98;3.83;;;18.00;95.00;;;;;;5092764;28;20059;-67
2022/12/05 12:13:44;;;;;;;21.90;5.60;;;18.00;95.10;;;;;;5093044;28;20039;-67
2022/12/05 12:17:15;;;;;;;12.55;4.38;;;18.00;94.70;;;;;;5093037;28;20221;-69
2022/12/05 12:20:25;;;;;;;11.55;3.90;;;17.90;94.60;;;;;;5092673;28;20058;-67
2022/12/05 12:24:06;;;;;;;15.80;3.75;;;18.00;94.70;;;;;;5092878;28;20043;-67
2022/12/05 12:27:36;;;;;;;16.65;3.33;;;17.90;94.50;;;;;;5092694;28;20039;-67
2022/12/05 12:31:15;;;;;;;19.67;2.85;;;17.90;94.60;;;;;;5077453;28;20050;-67
2022/12/05 12:34:25;;;;;;;12.40;3.10;;;17.90;94.40;;;;;;5032598;28;20045;-67
2022/12/05 12:38:06;;;;;;;13.48;3.20;;;17.90;94.20;;;;;;5092467;28;20047;-67
2022/12/05 12:41:48;;;;;;;12.13;3.85;;;18.00;94.10;;;;;;5092386;28;20051;-68
2022/12/05 12:44:55;;;;;;;20.17;3.97;;;17.90;94.00;;;;;;5092494;28;20384;-68
2022/12/05 12:48:31;;;;;;;18.17;3.38;;;17.90;93.80;;;;;;5092453;28;20047;-68
2022/12/05 12:51:43;;;;;;;13.82;2.78;;;17.90;93.80;;;;;;5077110;28;20058;-68
2022/12/05 12:55:13;;;;;;;10.15;2.88;;;17.90;93.70;;;;;;5092298;28;20336;-68
2022/12/05 12:58:42;;;;;;;16.35;2.72;;;17.90;93.20;;;;;;5092350;28;20042;-68
2022/12/05 13:02:03;;;;;;;11.02;2.53;;;17.90;92.90;;;;;;5092339;28;20055;-68
2022/12/05 13:05:20;;;;;;;16.95;4.15;;;17.90;92.80;;;;;;5092148;28;20043;-68
2022/12/05 13:08:31;;;;;;;21.33;4.18;;;17.90;93.00;;;;;;5091898;28;20043;-68
2022/12/05 13:11:39;;;;;;;16.70;3.85;;;17.90;93.10;;;;;;5091726;28;20039;-68
2022/12/05 13:14:56;;;;;;;11.00;3.00;;;17.90;93.00;;;;;;5091943;28;20062;-67
2022/12/05 13:18:02;;;;;;;8.45;2.67;;;17.80;92.90;;;;;;5092056;28;20039;-69
2022/12/05 13:21:07;;;;;;;11.38;3.00;;;17.90;92.80;;;;;;5091469;28;20051;-69
2022/12/05 13:24:12;;;;;;;10.75;3.13;;;17.80;92.70;;;;;;5091867;28;20106;-69
2022/12/05 13:27:22;;;;;;;11.85;2.63;;;17.90;92.80;;;;;;5091852;28;20042;-69
2022/12/05 13:30:27;;;;;;;12.10;2.50;;;17.80;92.80;;;;;;5091626;28;20059;-69
2022/12/05 13:33:41;;;;;;;18.88;3.60;;;17.80;92.70;;;;;;5091500;28;20046;-69
2022/12/05 13:43:52;;;;;;;11.45;3.10;;;17.70;93.10;;;;;;5091603;28;20047;-69
2022/12/05 13:46:56;;;;;;;11.50;2.88;;;17.70;93.30;;;;;;5091231;28;20387;-70
2022/12/05 13:50:03;;;;;;;13.68;3.17;;;17.70;93.50;;;;;;5091253;28;20051;-69
2022/12/05 13:53:26;;;;;;;15.52;3.90;;;17.60;93.60;;;;;;5091366;28;20506;-70
2022/12/05 13:57:00;;;;;;;19.00;4.13;;;17.60;93.90;;;;;;5090635;28;20035;-71
2022/12/05 14:00:07;;;;;;;16.00;4.40;;;17.60;94.20;;;;;;5090624;28;20399;-68
2022/12/05 14:03:34;;;;;;;17.20;4.45;;;17.60;94.50;;;;;;5091061;28;20369;-68
2022/12/05 14:06:40;;;;;;;16.05;4.18;;;17.50;94.70;;;;;;5091343;28;20589;-68
2022/12/05 14:09:51;;;;;;;14.27;4.65;;;17.50;94.90;;;;;;5091317;28;20051;-68
2022/12/05 14:12:59;;;;;;;13.27;3.00;;;17.50;95.30;;;;;;5091051;28;20047;-69
2022/12/05 14:16:24;;;;;;;11.57;3.25;;;17.50;95.40;;;;;;5091176;28;20059;-68
2022/12/05 14:19:55;;;;;;;17.67;3.95;;;17.40;95.50;;;;;;5090774;28;20055;-67
2022/12/05 14:23:20;;;;;;;20.52;3.70;;;17.40;95.80;;;;;;5083798;28;20055;-68
2022/12/05 14:26:33;;;;;;;9.70;3.25;;;17.40;95.90;;;;;;5091034;28;20043;-67
2022/12/05 14:29:40;;;;;;;19.58;3.90;;;17.40;96.00;;;;;;5090424;28;20047;-69
2022/12/05 14:32:47;;;;;;;12.85;3.85;;;17.40;96.10;;;;;;5091052;28;20055;-69
2022/12/05 14:35:52;;;;;;;23.15;5.70;;;17.30;96.30;;;;;;5090502;28;20105;-69
2022/12/05 14:38:56;;;;;;;15.48;4.43;;;17.30;96.40;;;;;;5090023;28;20047;-67
2022/12/05 14:42:04;;;;;;;15.90;4.20;;;17.30;96.50;;;;;;5090082;28;20051;-69
2022/12/05 14:45:46;;;;;;;20.88;4.70;;;17.20;96.70;;;;;;5090605;28;20050;-68
2022/12/05 14:48:51;;;;;;;14.02;4.05;;;17.20;96.90;;;;;;5090755;28;20498;-68
2022/12/05 14:51:56;;;;;;;19.42;4.18;;;17.20;97.10;;;;;;5090363;28;20055;-68
2022/12/05 14:55:05;;;;;;;21.63;5.25;;;17.10;97.30;;;;;;5090792;28;20274;-69
2022/12/05 14:58:39;;;;;;;25.75;6.18;;;17.10;97.50;;;;;;5089665;28;20043;-70
2022/12/05 15:01:49;;;;;;;22.55;6.45;;;17.00;97.70;;;;;;5090307;28;20074;-69
2022/12/05 15:05:27;;;;;;;25.52;6.00;;;17.00;97.70;;;;;;5089461;28;20043;-68
2022/12/05 15:08:43;;;;;;;23.10;6.50;;;17.00;97.80;;;;;;5093365;28;20043;-68
2022/12/05 15:11:47;;;;;;;25.23;5.88;;;16.90;97.80;;;;;;5093938;28;20042;-69
2022/12/05 15:15:16;;;;;;;31.08;6.28;;;16.90;97.80;;;;;;5093848;28;20360;-70
2022/12/05 15:18:28;;;;;;;19.77;5.57;;;16.80;97.80;;;;;;5093474;28;20051;-69
2022/12/05 15:21:38;;;;;;;34.92;7.57;;;16.70;98.10;;;;;;5092136;28;20503;-70
2022/12/05 15:24:42;;;;;;;31.45;7.55;;;16.70;98.10;;;;;;5092282;28;20035;-69
2022/12/05 15:28:05;;;;;;;36.17;7.63;;;16.60;98.20;;;;;;5091992;28;20423;-68
2022/12/05 15:31:12;;;;;;;44.10;8.90;;;16.60;98.50;;;;;;5092648;28;20043;-68
2022/12/05 15:34:44;;;;;;;39.45;8.60;;;16.50;98.70;;;;;;5093251;28;20519;-69
2022/12/05 15:37:59;;;;;;;44.03;9.10;;;16.40;99.00;;;;;;5093668;28;20043;-69
2022/12/05 15:41:03;;;;;;;42.67;9.15;;;16.30;99.20;;;;;;5093332;28;20062;-69
2022/12/05 15:44:10;;;;;;;32.05;9.27;;;16.20;99.20;;;;;;5093567;28;20047;-68
2022/12/05 15:47:23;;;;;;;53.33;11.15;;;16.20;99.40;;;;;;5093263;28;20067;-68
2022/12/05 15:50:51;;;;;;;45.78;11.55;;;16.00;99.50;;;;;;5093244;28;20043;-68
2022/12/05 15:54:14;;;;;;;71.50;15.32;;;15.90;99.90;;;;;;5093270;28;20055;-69
2022/12/05 15:57:26;;;;;;;48.70;12.32;;;15.90;99.90;;;;;;5092088;28;20506;-68
2022/12/05 16:00:35;;;;;;;58.33;12.38;;;15.70;99.90;;;;;;5092715;28;20051;-68
2022/12/05 16:04:08;;;;;;;26.20;8.40;;;15.70;99.90;;;;;;5092488;28;20114;-69
2022/12/05 16:07:13;;;;;;;55.97;13.13;;;15.70;99.90;;;;;;5093126;28;20053;-69
2022/12/05 16:10:19;;;;;;;40.08;10.55;;;15.60;99.90;;;;;;5093206;28;20122;-68
2022/12/05 16:13:26;;;;;;;54.90;13.27;;;15.50;99.90;;;;;;5093103;28;20043;-67
2022/12/05 16:16:34;;;;;;;45.17;13.20;;;15.40;99.90;;;;;;5092843;28;20047;-68
2022/12/05 16:19:38;;;;;;;53.25;13.48;;;15.30;99.90;;;;;;5092035;28;20062;-67
2022/12/05 16:22:51;;;;;;;66.47;16.05;;;15.30;99.90;;;;;;5093348;28;20055;-67
2022/12/05 16:26:14;;;;;;;69.28;19.80;;;15.20;99.90;;;;;;5092553;28;20351;-68
2022/12/05 16:29:29;;;;;;;66.07;18.63;;;15.20;99.90;;;;;;5092280;28;20039;-68
2022/12/05 16:32:34;;;;;;;69.35;19.02;;;15.20;99.90;;;;;;5092780;28;20043;-68
2022/12/05 16:35:41;;;;;;;64.93;17.52;;;15.20;99.90;;;;;;5092419;28;20043;-68
2022/12/05 16:38:45;;;;;;;55.30;15.85;;;15.10;99.90;;;;;;5092414;28;20043;-68
2022/12/05 16:41:50;;;;;;;45.05;13.95;;;15.10;99.90;;;;;;5092362;28;20522;-70
2022/12/05 16:45:02;;;;;;;52.67;19.13;;;15.10;99.90;;;;;;5092237;28;20035;-69
2022/12/05 16:48:21;;;;;;;46.92;17.30;;;15.10;99.90;;;;;;5092295;28;20039;-69
2022/12/05 16:51:26;;;;;;;46.28;17.75;;;15.00;99.90;;;;;;5092264;28;20455;-68